Time;durP1;ratioP1;P1;durP2;ratioP2;P2;SDS_P1;SDS_P2;PMS_P1;PMS_P2;Temp;Humidity;BMP_temperature;BMP_pressure;BME280_temperature;BME280_humidity;BME280_pressure;Samples;Min_cycle;Max_cycle;Signal;HPM_P1;HPM_P2
2023/02/03 00:00:32;;;;;;;2.90;1.05;;;6.80;99.90;;;;;;5072797;28;20031;-37
2023/02/03 00:02:57;;;;;;;2.38;1.40;;;6.80;99.90;;;;;;5073175;28;20095;-43
2023/02/03 00:05:23;;;;;;;1.58;1.05;;;6.90;99.90;;;;;;5073191;28;20020;-43
2023/02/03 00:07:49;;;;;;;1.60;1.00;;;7.10;99.90;;;;;;5073013;28;20471;-42
2023/02/03 00:10:20;;;;;;;2.22;1.30;;;7.30;99.90;;;;;;5072879;28;20025;-39
2023/02/03 00:12:49;;;;;;;2.28;1.13;;;7.50;99.90;;;;;;5072902;28;20066;-40
2023/02/03 00:15:15;;;;;;;1.73;1.10;;;7.50;99.90;;;;;;5073055;28;20585;-42
2023/02/03 00:17:41;;;;;;;1.60;1.10;;;7.50;99.90;;;;;;5072830;28;20039;-41
2023/02/03 00:20:07;;;;;;;1.85;1.00;;;7.50;99.90;;;;;;5072675;28;20108;-38
2023/02/03 00:22:32;;;;;;;1.50;1.02;;;7.40;99.90;;;;;;5072695;28;20028;-42
2023/02/03 00:24:59;;;;;;;1.50;1.10;;;7.30;99.90;;;;;;5072646;28;20052;-32
2023/02/03 00:27:25;;;;;;;3.63;1.45;;;7.30;99.90;;;;;;5072232;28;20020;-33
2023/02/03 00:29:50;;;;;;;1.63;1.10;;;7.20;99.90;;;;;;5072582;28;20094;-43
2023/02/03 00:32:16;;;;;;;1.50;1.00;;;7.20;99.90;;;;;;5072640;28;20032;-43
2023/02/03 00:34:41;;;;;;;1.50;0.90;;;7.10;99.90;;;;;;5072662;28;20046;-35
2023/02/03 00:37:07;;;;;;;1.48;1.00;;;7.10;99.90;;;;;;5072288;28;20383;-37
2023/02/03 00:39:36;;;;;;;1.95;0.90;;;7.00;99.90;;;;;;5072261;28;20522;-43
2023/02/03 00:42:03;;;;;;;1.35;1.10;;;7.00;99.90;;;;;;5072330;28;20123;-39
2023/02/03 00:44:29;;;;;;;1.90;0.90;;;7.00;99.90;;;;;;5072486;28;20482;-35
2023/02/03 00:46:54;;;;;;;2.85;0.90;;;7.00;99.90;;;;;;5072023;28;20023;-36
2023/02/03 00:49:20;;;;;;;1.80;0.90;;;6.90;99.90;;;;;;5072132;28;20029;-42
2023/02/03 00:51:45;;;;;;;1.35;0.90;;;6.90;99.90;;;;;;5072161;28;20375;-34
2023/02/03 00:54:12;;;;;;;1.70;0.95;;;6.90;99.90;;;;;;5072118;28;20055;-41
2023/02/03 00:56:38;;;;;;;1.20;0.85;;;6.90;99.90;;;;;;5070453;28;20364;-36
2023/02/03 00:59:04;;;;;;;0.98;0.80;;;6.90;99.90;;;;;;5071848;28;20119;-43
2023/02/03 01:01:30;;;;;;;1.20;0.93;;;6.90;99.90;;;;;;5071935;28;20510;-32
2023/02/03 01:03:55;;;;;;;1.38;0.98;;;6.90;99.90;;;;;;5071924;28;20021;-32
2023/02/03 01:06:21;;;;;;;2.45;0.90;;;7.00;99.90;;;;;;5071794;28;20036;-34
2023/02/03 01:08:48;;;;;;;1.55;0.90;;;7.20;99.90;;;;;;5071908;28;20020;-43
2023/02/03 01:11:23;;;;;;;1.92;1.10;;;7.40;99.90;;;;;;5071629;28;20082;-42
2023/02/03 01:13:50;;;;;;;1.90;1.05;;;7.50;99.90;;;;;;5071210;28;20031;-38
2023/02/03 01:16:18;;;;;;;0.82;0.70;;;7.50;99.90;;;;;;5071504;28;20025;-32
2023/02/03 01:18:44;;;;;;;1.40;0.80;;;7.50;99.90;;;;;;5071836;28;20016;-33
2023/02/03 01:21:28;;;;;;;1.55;0.90;;;7.40;99.90;;;;;;5071601;28;20482;-43
2023/02/03 01:23:53;;;;;;;2.55;0.90;;;7.40;99.90;;;;;;5071490;28;20067;-41
2023/02/03 01:26:22;;;;;;;1.52;0.77;;;7.30;99.90;;;;;;5071387;28;20036;-39
2023/02/03 01:28:57;;;;;;;2.17;0.93;;;7.20;99.90;;;;;;5071735;28;20457;-38
2023/02/03 01:31:38;;;;;;;1.70;1.00;;;7.10;99.90;;;;;;5071549;28;20024;-39
2023/02/03 01:34:05;;;;;;;2.13;0.90;;;7.10;99.90;;;;;;5071497;28;20108;-37
2023/02/03 01:36:33;;;;;;;2.75;0.90;;;7.10;99.90;;;;;;5071236;28;20033;-32
2023/02/03 01:38:59;;;;;;;1.10;0.70;;;7.00;99.90;;;;;;5071160;28;20032;-32
2023/02/03 01:41:31;;;;;;;1.90;1.00;;;7.00;99.90;;;;;;5071516;28;20027;-33
2023/02/03 01:43:58;;;;;;;1.30;0.90;;;7.00;99.90;;;;;;5071325;28;20060;-42
2023/02/03 01:46:47;;;;;;;1.35;0.88;;;6.90;99.90;;;;;;5071063;28;20394;-39
2023/02/03 01:49:23;;;;;;;1.60;1.05;;;6.90;99.90;;;;;;5071245;28;20016;-39
2023/02/03 01:51:49;;;;;;;1.52;0.95;;;6.90;99.90;;;;;;5072789;28;20035;-42
2023/02/03 01:54:21;;;;;;;1.17;0.88;;;6.80;99.90;;;;;;5071525;28;20035;-42
2023/02/03 01:56:52;;;;;;;2.30;0.95;;;6.90;99.90;;;;;;5071146;28;20107;-38
2023/02/03 01:59:20;;;;;;;1.13;0.73;;;6.80;99.90;;;;;;5071179;28;20040;-41
2023/02/03 02:01:46;;;;;;;2.05;0.90;;;6.80;99.90;;;;;;5071164;28;20069;-43
2023/02/03 02:04:12;;;;;;;1.60;1.00;;;6.80;99.90;;;;;;5071295;28;20033;-42
2023/02/03 02:06:37;;;;;;;1.65;1.00;;;7.00;99.90;;;;;;5071000;28;20028;-35
2023/02/03 02:09:03;;;;;;;0.70;0.60;;;7.20;99.90;;;;;;5072665;28;20039;-37
2023/02/03 02:11:29;;;;;;;1.58;0.85;;;7.50;99.90;;;;;;5071004;28;20032;-36
2023/02/03 02:13:59;;;;;;;1.60;0.70;;;7.50;99.90;;;;;;5070941;28;20534;-39
2023/02/03 02:16:36;;;;;;;1.08;0.90;;;7.50;99.90;;;;;;5070793;28;20064;-37
2023/02/03 02:19:38;;;;;;;1.08;0.70;;;7.50;99.90;;;;;;5071015;28;20028;-41
2023/02/03 02:22:18;;;;;;;1.38;0.82;;;7.40;99.90;;;;;;5070911;28;20020;-43
2023/02/03 02:25:02;;;;;;;1.40;1.00;;;7.40;99.90;;;;;;5071323;28;20024;-34
2023/02/03 02:27:55;;;;;;;0.98;0.77;;;7.30;99.90;;;;;;5074784;28;20032;-41
2023/02/03 02:30:49;;;;;;;1.02;0.60;;;7.20;99.90;;;;;;5074806;28;20052;-36
2023/02/03 02:33:26;;;;;;;0.95;0.80;;;7.10;99.90;;;;;;5076645;28;20112;-42
2023/02/03 02:35:57;;;;;;;1.90;0.90;;;7.10;99.90;;;;;;5075253;28;20059;-37
2023/02/03 02:39:04;;;;;;;1.42;0.70;;;7.10;99.90;;;;;;5075278;28;20468;-37
2023/02/03 02:41:42;;;;;;;1.00;0.90;;;7.00;99.90;;;;;;5073842;28;20461;-33
2023/02/03 02:44:25;;;;;;;1.23;0.82;;;7.00;99.90;;;;;;5074689;28;20418;-33
2023/02/03 02:46:59;;;;;;;1.17;0.90;;;6.90;99.90;;;;;;5075791;28;20467;-42
2023/02/03 02:49:41;;;;;;;1.42;0.80;;;6.90;99.90;;;;;;5074427;28;20048;-39
2023/02/03 02:52:08;;;;;;;1.38;0.95;;;6.90;99.90;;;;;;5074493;28;20398;-32
2023/02/03 02:54:39;;;;;;;1.45;0.80;;;6.90;99.90;;;;;;5074445;28;20141;-41
2023/02/03 02:57:08;;;;;;;1.17;0.75;;;6.80;99.90;;;;;;5072831;28;20020;-37
2023/02/03 02:59:34;;;;;;;2.38;0.80;;;6.80;99.90;;;;;;5075947;28;20040;-34
2023/02/03 03:02:01;;;;;;;1.42;0.80;;;6.80;99.90;;;;;;5075384;28;20055;-35
2023/02/03 03:04:28;;;;;;;2.35;0.98;;;6.80;99.90;;;;;;5074844;28;20025;-41
2023/02/03 03:07:02;;;;;;;2.08;0.80;;;7.00;99.90;;;;;;5073889;28;20530;-43
2023/02/03 03:09:37;;;;;;;1.20;0.87;;;7.30;99.90;;;;;;5074103;28;20024;-34
2023/02/03 03:12:27;;;;;;;1.65;0.88;;;7.50;99.90;;;;;;5074053;28;20266;-42
2023/02/03 03:15:06;;;;;;;0.60;0.50;;;7.50;99.90;;;;;;5074104;28;20062;-38
2023/02/03 03:17:38;;;;;;;1.33;0.82;;;7.50;99.90;;;;;;5073776;28;20487;-41
2023/02/03 03:20:10;;;;;;;0.75;0.52;;;7.40;99.90;;;;;;5074347;28;20032;-38
2023/02/03 03:22:40;;;;;;;1.63;0.55;;;7.40;99.90;;;;;;5075922;28;20405;-41
2023/02/03 03:25:17;;;;;;;1.23;0.70;;;7.30;99.90;;;;;;5076052;28;20548;-41
2023/02/03 03:27:51;;;;;;;0.57;0.57;;;7.30;99.90;;;;;;5073577;28;20040;-36
2023/02/03 03:30:24;;;;;;;2.35;1.02;;;7.20;99.90;;;;;;5073777;28;20029;-34
2023/02/03 03:32:50;;;;;;;0.95;0.68;;;7.10;99.90;;;;;;5073649;28;20107;-35
2023/02/03 03:35:16;;;;;;;2.47;0.80;;;7.10;99.90;;;;;;5073366;28;20104;-37
2023/02/03 03:38:01;;;;;;;1.70;0.63;;;7.00;99.90;;;;;;5073117;28;20047;-36
2023/02/03 03:40:32;;;;;;;1.67;0.70;;;7.00;99.90;;;;;;5074637;28;20029;-37
2023/02/03 03:43:03;;;;;;;0.90;0.50;;;7.00;99.90;;;;;;5075924;28;20023;-42
2023/02/03 03:45:48;;;;;;;0.88;0.63;;;6.90;99.90;;;;;;5073824;28;20048;-34
2023/02/03 03:48:21;;;;;;;1.08;0.70;;;6.90;99.90;;;;;;5075613;28;20094;-36
2023/02/03 03:50:52;;;;;;;1.00;0.60;;;6.90;99.90;;;;;;5076046;28;20039;-32
2023/02/03 03:53:19;;;;;;;0.93;0.60;;;6.90;99.90;;;;;;5073947;28;20453;-40
2023/02/03 03:55:49;;;;;;;0.82;0.50;;;6.90;99.90;;;;;;5073057;28;20379;-38
2023/02/03 03:58:20;;;;;;;1.05;0.55;;;6.90;99.90;;;;;;5072968;28;20024;-34
2023/02/03 04:00:46;;;;;;;0.60;0.60;;;6.80;99.90;;;;;;5073144;28;20038;-41
2023/02/03 04:03:26;;;;;;;1.00;0.50;;;6.80;99.90;;;;;;5074512;28;20050;-34
2023/02/03 04:05:52;;;;;;;0.55;0.47;;;7.00;99.90;;;;;;5074732;28;20027;-32
2023/02/03 04:08:18;;;;;;;0.80;0.52;;;7.10;99.90;;;;;;5073759;28;20036;-37
2023/02/03 04:10:44;;;;;;;0.98;0.68;;;7.40;99.90;;;;;;5074287;28;20028;-36
2023/02/03 04:13:10;;;;;;;0.93;0.60;;;7.50;99.90;;;;;;5073231;28;20141;-39
2023/02/03 04:15:36;;;;;;;0.90;0.77;;;7.50;99.90;;;;;;5075195;28;20020;-33
2023/02/03 04:18:03;;;;;;;0.85;0.47;;;7.50;99.90;;;;;;5072693;28;20028;-34
2023/02/03 04:20:30;;;;;;;0.90;0.60;;;7.40;99.90;;;;;;5072675;28;20028;-39
2023/02/03 04:22:56;;;;;;;0.47;0.40;;;7.40;99.90;;;;;;5072650;28;20374;-39
2023/02/03 04:25:23;;;;;;;1.30;0.60;;;7.30;99.90;;;;;;5072629;28;20070;-36
2023/02/03 04:27:48;;;;;;;1.05;0.57;;;7.20;99.90;;;;;;5072882;28;20025;-33
2023/02/03 04:30:14;;;;;;;0.82;0.57;;;7.20;99.90;;;;;;5072524;28;20525;-38
2023/02/03 04:32:40;;;;;;;0.50;0.50;;;7.10;99.90;;;;;;5072609;28;20109;-34
2023/02/03 04:35:07;;;;;;;1.48;0.60;;;7.10;99.90;;;;;;5072513;28;20039;-35
2023/02/03 04:37:33;;;;;;;0.98;0.50;;;7.00;99.90;;;;;;5072168;28;20682;-38
2023/02/03 04:39:58;;;;;;;1.20;0.60;;;7.00;99.90;;;;;;5072490;28;20122;-33
2023/02/03 04:42:24;;;;;;;0.43;0.40;;;7.00;99.90;;;;;;5073026;28;20568;-39
2023/02/03 04:44:50;;;;;;;1.08;0.47;;;7.00;99.90;;;;;;5072417;28;20032;-42
2023/02/03 04:47:17;;;;;;;0.60;0.50;;;6.90;99.90;;;;;;5071520;28;20028;-35
2023/02/03 04:49:42;;;;;;;1.05;0.50;;;6.90;99.90;;;;;;5072390;28;20033;-33
2023/02/03 04:52:08;;;;;;;0.60;0.60;;;6.90;99.90;;;;;;5072058;28;20031;-41
2023/02/03 04:54:34;;;;;;;0.90;0.60;;;6.90;99.90;;;;;;5072536;28;20032;-41
2023/02/03 04:57:00;;;;;;;0.68;0.40;;;6.90;99.90;;;;;;5071401;28;20106;-36
2023/02/03 04:59:26;;;;;;;0.50;0.50;;;6.90;99.90;;;;;;5072731;28;20036;-33
2023/02/03 05:01:52;;;;;;;1.73;0.68;;;6.80;99.90;;;;;;5072058;28;20029;-35
2023/02/03 05:04:18;;;;;;;0.60;0.50;;;6.90;99.90;;;;;;5072415;28;20017;-37
2023/02/03 05:06:43;;;;;;;0.70;0.50;;;7.00;99.90;;;;;;5073983;28;20023;-39
2023/02/03 05:09:09;;;;;;;0.70;0.60;;;7.20;99.90;;;;;;5071816;28;20028;-33
2023/02/03 05:11:35;;;;;;;0.50;0.50;;;7.40;99.90;;;;;;5071856;28;20056;-33
2023/02/03 05:14:00;;;;;;;0.57;0.50;;;7.50;99.90;;;;;;5071777;28;20028;-35
2023/02/03 05:16:26;;;;;;;0.60;0.45;;;7.60;99.90;;;;;;5071646;28;20056;-36
2023/02/03 05:18:53;;;;;;;0.38;0.38;;;7.50;99.90;;;;;;5073477;28;20115;-39
2023/02/03 05:21:19;;;;;;;1.02;0.60;;;7.40;99.90;;;;;;5071747;28;20390;-42
2023/02/03 05:23:45;;;;;;;1.33;0.50;;;7.40;99.90;;;;;;5071733;28;20017;-43
2023/02/03 05:26:10;;;;;;;0.55;0.40;;;7.30;99.90;;;;;;5071376;28;20032;-39
2023/02/03 05:28:36;;;;;;;0.95;0.50;;;7.20;99.90;;;;;;5071658;28;20032;-33
2023/02/03 05:31:02;;;;;;;0.55;0.50;;;7.20;99.90;;;;;;5073776;28;20536;-43
2023/02/03 05:33:29;;;;;;;0.82;0.50;;;7.10;99.90;;;;;;5071103;28;20115;-43
2023/02/03 05:35:54;;;;;;;0.90;0.50;;;7.10;99.90;;;;;;5071749;28;20042;-42
2023/02/03 05:38:21;;;;;;;0.73;0.55;;;7.10;99.90;;;;;;5072122;28;20457;-40
2023/02/03 05:43:32;;;;;;;0.70;0.50;;;7.00;99.90;;;;;;5071745;28;20074;-32
2023/02/03 05:46:01;;;;;;;0.73;0.50;;;7.00;99.90;;;;;;5071076;28;20024;-35
2023/02/03 05:48:27;;;;;;;1.20;0.60;;;6.90;99.90;;;;;;5072235;28;20044;-43
2023/02/03 05:50:52;;;;;;;1.30;0.68;;;6.90;99.90;;;;;;5074289;28;20020;-39
2023/02/03 05:53:18;;;;;;;0.68;0.40;;;6.90;99.90;;;;;;5072462;28;20104;-42
2023/02/03 05:55:44;;;;;;;0.63;0.50;;;6.90;99.90;;;;;;5071109;28;20083;-38
2023/02/03 05:58:09;;;;;;;2.55;0.70;;;6.80;99.90;;;;;;5071426;28;20062;-37
2023/02/03 06:00:35;;;;;;;0.98;0.60;;;6.80;99.90;;;;;;5071618;28;20398;-43
2023/02/03 06:03:02;;;;;;;0.77;0.50;;;6.80;99.90;;;;;;5071625;28;20092;-43
2023/02/03 06:05:28;;;;;;;0.63;0.50;;;6.90;99.90;;;;;;5072269;28;20089;-37
2023/02/03 06:07:54;;;;;;;0.55;0.45;;;7.10;99.90;;;;;;5073218;28;20093;-36
2023/02/03 06:10:20;;;;;;;0.60;0.50;;;7.30;99.90;;;;;;5071074;28;20028;-36
2023/02/03 06:12:47;;;;;;;1.40;0.75;;;7.50;99.90;;;;;;5071031;28;20051;-34
2023/02/03 06:15:13;;;;;;;0.68;0.50;;;7.50;99.90;;;;;;5071005;28;20036;-35
2023/02/03 06:17:39;;;;;;;1.00;0.60;;;7.50;99.90;;;;;;5070961;28;20029;-32
2023/02/03 06:20:06;;;;;;;0.93;0.68;;;7.50;99.90;;;;;;5070859;28;20032;-39
2023/02/03 06:22:32;;;;;;;2.42;0.70;;;7.40;99.90;;;;;;5071015;28;20036;-43
2023/02/03 06:24:58;;;;;;;0.80;0.63;;;7.30;99.90;;;;;;5072308;28;20029;-32
2023/02/03 06:27:23;;;;;;;0.93;0.70;;;7.20;99.90;;;;;;5071136;28;20032;-32
2023/02/03 06:29:49;;;;;;;1.40;0.50;;;7.20;99.90;;;;;;5070885;28;20036;-34
2023/02/03 06:32:15;;;;;;;0.85;0.55;;;7.20;99.90;;;;;;5070864;28;20095;-36
2023/02/03 06:34:40;;;;;;;0.70;0.43;;;7.10;99.90;;;;;;5070664;28;20115;-33
2023/02/03 06:37:06;;;;;;;1.80;0.70;;;7.10;99.90;;;;;;5070546;28;20193;-42
2023/02/03 06:39:32;;;;;;;0.88;0.50;;;7.00;99.90;;;;;;5070717;28;20024;-32
2023/02/03 06:41:57;;;;;;;0.50;0.50;;;7.00;99.90;;;;;;5071114;28;20021;-39
2023/02/03 06:44:23;;;;;;;0.65;0.55;;;7.00;99.90;;;;;;5071508;28;20045;-37
2023/02/03 06:46:49;;;;;;;2.70;0.43;;;7.00;99.90;;;;;;5071023;28;20414;-34
2023/02/03 06:49:18;;;;;;;0.70;0.55;;;6.90;99.90;;;;;;5070709;28;20032;-38
2023/02/03 06:51:45;;;;;;;0.73;0.52;;;6.90;99.90;;;;;;5070614;28;20028;-42
2023/02/03 06:54:11;;;;;;;1.13;0.50;;;6.90;99.90;;;;;;5071302;28;20058;-43
2023/02/03 06:56:37;;;;;;;2.63;0.70;;;6.80;99.90;;;;;;5071195;28;20041;-34
2023/02/03 06:59:03;;;;;;;1.15;0.68;;;6.80;99.90;;;;;;5071088;28;20033;-32
2023/02/03 07:01:29;;;;;;;0.57;0.55;;;6.80;99.90;;;;;;5070517;28;20051;-33
2023/02/03 07:03:59;;;;;;;0.95;0.52;;;6.80;99.90;;;;;;5070664;28;20107;-42
2023/02/03 07:06:29;;;;;;;1.30;0.60;;;7.00;99.90;;;;;;5070737;28;20140;-33
2023/02/03 07:08:56;;;;;;;2.20;0.60;;;7.20;99.90;;;;;;5070480;28;20390;-37
2023/02/03 07:11:22;;;;;;;0.77;0.60;;;7.40;99.90;;;;;;5071763;28;20032;-32
2023/02/03 07:13:48;;;;;;;0.75;0.50;;;7.40;99.90;;;;;;5074455;28;20025;-39
2023/02/03 07:16:14;;;;;;;1.00;0.63;;;7.40;99.90;;;;;;5073829;28;20067;-34
2023/02/03 07:18:39;;;;;;;0.50;0.50;;;7.40;99.90;;;;;;5073850;28;20111;-43
2023/02/03 07:21:06;;;;;;;0.50;0.50;;;7.40;99.90;;;;;;5073850;28;20374;-42
2023/02/03 07:23:32;;;;;;;1.20;0.70;;;7.30;99.90;;;;;;5073953;28;20052;-41
2023/02/03 07:26:03;;;;;;;1.50;0.60;;;7.20;99.90;;;;;;5073852;28;20486;-41
2023/02/03 07:28:30;;;;;;;0.75;0.60;;;7.20;99.90;;;;;;5073785;28;20078;-40
2023/02/03 07:30:56;;;;;;;1.55;0.85;;;7.10;99.90;;;;;;5073719;28;20451;-36
2023/02/03 07:33:22;;;;;;;1.25;0.70;;;7.10;99.90;;;;;;5072313;28;20107;-35
2023/02/03 07:35:51;;;;;;;1.13;0.68;;;7.00;99.90;;;;;;5073516;28;20021;-42
2023/02/03 07:38:17;;;;;;;1.55;0.63;;;7.00;99.90;;;;;;5073565;28;20032;-38
2023/02/03 07:40:43;;;;;;;0.75;0.60;;;7.00;99.90;;;;;;5073602;28;20040;-36
2023/02/03 07:43:08;;;;;;;0.75;0.63;;;7.00;99.90;;;;;;5073609;28;20020;-41
2023/02/03 07:45:34;;;;;;;1.50;0.90;;;6.90;99.90;;;;;;5074529;28;20593;-41
2023/02/03 07:47:59;;;;;;;1.15;0.80;;;6.90;99.90;;;;;;5073210;28;20035;-39
2023/02/03 07:50:25;;;;;;;2.13;0.80;;;6.90;99.90;;;;;;5075923;28;20064;-37
2023/02/03 07:52:52;;;;;;;0.90;0.70;;;6.90;99.90;;;;;;5076252;28;20374;-40
2023/02/03 07:55:18;;;;;;;1.10;0.80;;;6.80;99.90;;;;;;5073830;28;20016;-39
2023/02/03 07:57:44;;;;;;;1.50;0.68;;;6.80;99.90;;;;;;5073116;28;20445;-32
2023/02/03 08:00:14;;;;;;;1.65;0.90;;;6.80;99.90;;;;;;5075092;28;20036;-43
2023/02/03 08:02:43;;;;;;;0.75;0.75;;;6.80;99.90;;;;;;5073158;28;20024;-38
2023/02/03 08:05:10;;;;;;;1.88;1.00;;;6.80;99.90;;;;;;5073237;28;20025;-34
2023/02/03 08:07:35;;;;;;;1.75;0.88;;;6.80;99.90;;;;;;5072926;28;20484;-43
2023/02/03 08:10:01;;;;;;;1.65;0.80;;;6.80;99.90;;;;;;5073106;28;20024;-41
2023/02/03 08:12:27;;;;;;;0.63;0.60;;;6.80;99.90;;;;;;5073073;28;20055;-36
2023/02/03 08:14:53;;;;;;;1.80;0.80;;;6.80;99.90;;;;;;5072881;28;20056;-38
2023/02/03 08:17:18;;;;;;;2.47;0.70;;;6.80;99.90;;;;;;5072612;28;20393;-40
2023/02/03 08:19:44;;;;;;;0.65;0.60;;;6.80;99.90;;;;;;5072761;28;20024;-41
2023/02/03 08:22:14;;;;;;;1.83;0.90;;;6.70;99.90;;;;;;5074787;28;20021;-42
2023/02/03 08:24:44;;;;;;;2.08;1.10;;;6.80;99.90;;;;;;5073102;28;20013;-43
2023/02/03 08:27:12;;;;;;;2.03;1.20;;;6.70;99.90;;;;;;5074051;28;20398;-44
2023/02/03 08:29:38;;;;;;;3.10;1.20;;;6.70;99.90;;;;;;5073197;28;20103;-43
2023/02/03 08:32:04;;;;;;;2.17;1.25;;;6.70;99.90;;;;;;5074977;28;20044;-38
2023/02/03 08:34:29;;;;;;;1.92;0.93;;;6.70;99.90;;;;;;5072903;28;20117;-40
2023/02/03 08:36:55;;;;;;;2.10;1.25;;;6.70;99.90;;;;;;5072473;28;20039;-44
2023/02/03 08:39:21;;;;;;;1.23;1.02;;;6.70;99.90;;;;;;5073451;28;20036;-35
2023/02/03 08:41:47;;;;;;;3.95;1.27;;;6.70;99.90;;;;;;5072369;28;20360;-44
2023/02/03 08:44:13;;;;;;;2.90;1.23;;;6.70;99.90;;;;;;5073058;28;20036;-40
2023/02/03 08:46:42;;;;;;;3.40;1.35;;;6.70;99.90;;;;;;5072911;28;20024;-36
2023/02/03 08:49:09;;;;;;;2.65;1.48;;;6.70;99.90;;;;;;5072184;28;20107;-36
2023/02/03 08:51:35;;;;;;;2.25;1.40;;;6.70;99.90;;;;;;5072247;28;20456;-44
2023/02/03 08:54:01;;;;;;;4.05;1.30;;;6.70;99.90;;;;;;5072912;28;20024;-37
2023/02/03 08:56:27;;;;;;;2.13;1.40;;;6.70;99.90;;;;;;5072695;28;20074;-36
2023/02/03 08:58:53;;;;;;;2.25;1.30;;;6.70;99.90;;;;;;5071577;28;20028;-38
2023/02/03 09:01:19;;;;;;;2.40;0.93;;;6.70;99.90;;;;;;5071931;28;20059;-42
2023/02/03 09:03:44;;;;;;;1.95;1.30;;;6.70;99.90;;;;;;5071898;28;20053;-41
2023/02/03 09:06:15;;;;;;;2.05;1.20;;;6.70;99.90;;;;;;5071657;28;20023;-44
2023/02/03 09:08:44;;;;;;;1.50;1.10;;;6.70;99.90;;;;;;5071818;28;20047;-40
2023/02/03 09:11:11;;;;;;;1.60;1.30;;;6.70;99.90;;;;;;5071630;28;20612;-44
2023/02/03 09:13:38;;;;;;;2.38;1.02;;;6.70;99.90;;;;;;5072150;28;20029;-35
2023/02/03 09:16:05;;;;;;;1.75;1.15;;;6.70;99.90;;;;;;5071448;28;20051;-37
2023/02/03 09:18:31;;;;;;;1.73;1.10;;;6.70;99.90;;;;;;5071570;28;20111;-40
2023/02/03 09:21:01;;;;;;;2.08;1.20;;;6.70;99.90;;;;;;5072197;28;20143;-44
2023/02/03 09:23:27;;;;;;;1.42;1.10;;;6.70;99.90;;;;;;5071567;28;20434;-40
2023/02/03 09:25:53;;;;;;;1.95;1.30;;;6.70;99.90;;;;;;5071245;28;20025;-43
2023/02/03 09:28:18;;;;;;;2.20;1.15;;;6.70;99.90;;;;;;5071359;28;20028;-38
2023/02/03 09:30:44;;;;;;;1.77;1.10;;;6.70;99.90;;;;;;5071958;28;20039;-33
2023/02/03 09:33:11;;;;;;;2.00;1.20;;;6.70;99.90;;;;;;5073235;28;20044;-37
2023/02/03 09:35:37;;;;;;;1.70;1.00;;;6.70;99.90;;;;;;5071371;28;20058;-44
2023/02/03 09:38:03;;;;;;;1.45;1.00;;;6.70;99.90;;;;;;5072421;28;20027;-36
2023/02/03 09:40:38;;;;;;;1.25;0.90;;;6.70;99.90;;;;;;5071385;28;20028;-43
2023/02/03 09:43:09;;;;;;;3.67;1.20;;;6.70;99.90;;;;;;5072330;28;20058;-40
2023/02/03 09:45:34;;;;;;;2.70;1.08;;;6.80;99.90;;;;;;5071938;28;20027;-36
2023/02/03 09:48:09;;;;;;;1.63;1.00;;;6.70;99.90;;;;;;5071352;28;20020;-39
2023/02/03 09:50:38;;;;;;;2.00;1.20;;;6.70;99.90;;;;;;5072609;28;20099;-43
2023/02/03 09:53:13;;;;;;;1.30;0.90;;;6.70;99.90;;;;;;5071188;28;20440;-44
2023/02/03 09:55:43;;;;;;;1.45;1.00;;;6.70;99.90;;;;;;5072124;28;20028;-33
2023/02/03 09:58:14;;;;;;;2.00;1.00;;;6.80;99.90;;;;;;5071708;28;20020;-44
2023/02/03 10:00:43;;;;;;;2.00;1.20;;;6.80;99.90;;;;;;5071042;28;20513;-44
2023/02/03 10:03:30;;;;;;;2.45;1.10;;;6.80;99.90;;;;;;5071101;28;20127;-38
2023/02/03 10:06:14;;;;;;;2.20;0.95;;;6.80;99.90;;;;;;5070905;28;20086;-44
2023/02/03 10:08:57;;;;;;;2.25;1.02;;;6.80;99.90;;;;;;5071220;28;20398;-35
2023/02/03 10:11:59;;;;;;;1.67;1.02;;;6.80;99.90;;;;;;5071034;28;20025;-34
2023/02/03 10:14:49;;;;;;;1.50;1.10;;;6.80;99.90;;;;;;5069933;28;20131;-36
2023/02/03 10:17:21;;;;;;;1.60;1.17;;;6.80;99.90;;;;;;5071200;28;20494;-38
2023/02/03 10:19:50;;;;;;;1.95;0.90;;;6.80;99.90;;;;;;5071103;28;20056;-35
2023/02/03 10:22:21;;;;;;;1.88;0.90;;;6.80;99.90;;;;;;5071081;28;20360;-43
2023/02/03 10:24:46;;;;;;;1.77;1.05;;;6.80;99.90;;;;;;5071012;28;20020;-34
2023/02/03 10:27:23;;;;;;;1.50;1.00;;;6.80;99.90;;;;;;5072098;28;20025;-37
2023/02/03 10:30:22;;;;;;;2.67;1.05;;;6.80;99.90;;;;;;5071677;28;20028;-43
2023/02/03 10:32:55;;;;;;;1.13;0.88;;;6.80;99.90;;;;;;5070801;28;20100;-34
2023/02/03 10:35:32;;;;;;;1.63;0.93;;;6.90;99.90;;;;;;5072030;28;20029;-34
2023/02/03 10:37:58;;;;;;;1.13;0.90;;;6.80;99.90;;;;;;5070754;28;20028;-44
2023/02/03 10:40:27;;;;;;;3.08;1.23;;;6.80;99.90;;;;;;5070655;28;20475;-38
2023/02/03 10:45:39;;;;;;;2.33;0.90;;;6.90;99.90;;;;;;5070885;28;20055;-43
2023/02/03 10:48:10;;;;;;;1.83;0.90;;;6.90;99.90;;;;;;5074397;28;20474;-43
2023/02/03 10:50:41;;;;;;;1.88;1.00;;;6.90;99.90;;;;;;5074583;28;20025;-43
2023/02/03 10:53:22;;;;;;;2.58;0.80;;;6.90;99.90;;;;;;5074583;28;20029;-38
2023/02/03 10:55:59;;;;;;;1.60;0.88;;;6.90;99.90;;;;;;5074183;28;20173;-36
2023/02/03 10:58:27;;;;;;;1.20;0.80;;;6.90;99.90;;;;;;5074167;28;20521;-44
2023/02/03 11:01:14;;;;;;;1.13;0.80;;;6.90;99.90;;;;;;5074314;28;20029;-34
2023/02/03 11:04:02;;;;;;;1.23;0.90;;;6.90;99.90;;;;;;5074745;28;20098;-44
2023/02/03 11:06:28;;;;;;;1.25;0.95;;;6.90;99.90;;;;;;5074004;28;20069;-40
2023/02/03 11:08:54;;;;;;;1.55;0.85;;;6.90;99.90;;;;;;5073998;28;20024;-43
2023/02/03 11:11:33;;;;;;;1.75;1.00;;;6.90;99.90;;;;;;5074257;28;20100;-44
2023/02/03 11:14:01;;;;;;;1.45;0.80;;;6.90;99.90;;;;;;5074082;28;20043;-44
2023/02/03 11:16:27;;;;;;;1.60;0.80;;;6.90;99.90;;;;;;5074633;28;20026;-40
2023/02/03 11:18:54;;;;;;;1.30;0.90;;;6.90;99.90;;;;;;5073821;28;20068;-44
2023/02/03 11:21:27;;;;;;;2.03;1.10;;;6.90;99.90;;;;;;5073924;28;20077;-36
2023/02/03 11:23:56;;;;;;;1.20;0.90;;;6.90;99.90;;;;;;5073931;28;20387;-39
2023/02/03 11:26:35;;;;;;;1.98;0.90;;;6.90;99.90;;;;;;5074002;28;20095;-43
2023/02/03 11:29:05;;;;;;;1.20;0.90;;;6.90;99.90;;;;;;5074854;28;20111;-44
2023/02/03 11:31:33;;;;;;;1.65;1.00;;;6.90;99.90;;;;;;5073729;28;20097;-42
2023/02/03 11:34:04;;;;;;;1.10;1.00;;;6.90;99.90;;;;;;5074675;28;20094;-35
2023/02/03 11:36:33;;;;;;;2.20;1.00;;;6.90;99.90;;;;;;5074455;28;20412;-37
2023/02/03 11:39:18;;;;;;;1.10;1.00;;;6.90;99.90;;;;;;5074621;28;20050;-42
2023/02/03 11:41:45;;;;;;;1.50;1.10;;;6.90;99.90;;;;;;5073578;28;20070;-43
2023/02/03 11:44:16;;;;;;;1.20;1.00;;;6.90;99.90;;;;;;5073547;28;20060;-37
2023/02/03 11:46:43;;;;;;;0.95;0.75;;;6.90;99.90;;;;;;5073296;28;20470;-37
2023/02/03 11:49:43;;;;;;;1.40;0.90;;;6.90;99.90;;;;;;5073755;28;20040;-43
2023/02/03 11:52:43;;;;;;;2.25;1.10;;;6.90;99.90;;;;;;5073880;28;20062;-43
2023/02/03 11:55:41;;;;;;;0.90;0.80;;;6.90;99.90;;;;;;5073335;28;20055;-36
2023/02/03 11:58:43;;;;;;;2.00;1.10;;;6.90;99.90;;;;;;5072737;28;20028;-38
2023/02/03 12:01:17;;;;;;;1.77;1.00;;;6.90;99.90;;;;;;5073754;28;20037;-43
2023/02/03 12:03:55;;;;;;;;;;;6.90;99.90;;;;;;5074346;28;20029;-43
2023/02/03 12:06:44;;;;;;;3.38;1.00;;;7.00;99.90;;;;;;5073856;28;19935;-40
2023/02/03 12:09:34;;;;;;;3.60;1.15;;;7.00;99.90;;;;;;5074849;28;20563;-33
2023/02/03 12:12:15;;;;;;;3.60;1.23;;;7.00;99.90;;;;;;5073137;28;20024;-41
2023/02/03 12:14:40;;;;;;;6.68;1.13;;;7.00;99.90;;;;;;5072921;28;20025;-32
2023/02/03 12:17:40;;;;;;;6.47;1.30;;;7.00;99.90;;;;;;5073471;28;20378;-33
2023/02/03 12:20:18;;;;;;;4.50;1.10;;;7.00;99.90;;;;;;5071398;28;20082;-35
2023/02/03 12:22:52;;;;;;;2.58;0.85;;;7.00;99.90;;;;;;5072856;28;20029;-33
2023/02/03 12:25:38;;;;;;;;;;;7.00;99.90;;;;;;5073235;28;20024;-43
2023/02/03 12:28:22;;;;;;;3.65;1.20;;;7.00;99.90;;;;;;5072748;28;20004;-35
2023/02/03 12:31:17;;;;;;;1.40;0.90;;;7.00;99.90;;;;;;5072651;28;20533;-33
2023/02/03 12:33:46;;;;;;;;;;;7.00;99.90;;;;;;5072485;28;20037;-39
2023/02/03 12:36:25;;;;;;;3.28;0.98;;;7.10;99.90;;;;;;5072379;28;19904;-43
2023/02/03 12:38:53;;;;;;;2.67;1.20;;;7.10;99.90;;;;;;5072927;28;20075;-39
2023/02/03 12:41:27;;;;;;;1.50;0.90;;;7.10;99.90;;;;;;5072366;28;20024;-38
2023/02/03 12:43:59;;;;;;;1.17;0.82;;;7.10;99.90;;;;;;5072445;28;20044;-39
2023/02/03 12:46:29;;;;;;;1.35;1.00;;;7.10;99.90;;;;;;5072182;28;20078;-39
2023/02/03 12:49:25;;;;;;;2.95;1.15;;;7.10;99.90;;;;;;5072251;28;20031;-38
2023/02/03 12:52:01;;;;;;;1.35;0.65;;;7.10;99.90;;;;;;5073026;28;20038;-43
2023/02/03 12:55:01;;;;;;;2.75;1.05;;;7.10;99.90;;;;;;5072250;28;20111;-40
2023/02/03 12:57:37;;;;;;;1.65;1.00;;;7.10;99.90;;;;;;5071293;28;20468;-32
2023/02/03 13:00:33;;;;;;;1.40;0.80;;;7.10;99.90;;;;;;5071797;28;20398;-43
2023/02/03 13:03:23;;;;;;;1.88;1.08;;;7.10;99.90;;;;;;5072111;28;20039;-43
2023/02/03 13:06:11;;;;;;;1.77;1.25;;;7.10;99.90;;;;;;5071843;28;20025;-32
2023/02/03 13:09:09;;;;;;;2.30;0.90;;;7.10;99.90;;;;;;5073331;28;20025;-35
2023/02/03 13:12:01;;;;;;;1.88;0.93;;;7.10;99.90;;;;;;5071176;28;20033;-43
2023/02/03 13:14:35;;;;;;;2.03;0.80;;;7.10;99.90;;;;;;5071812;28;20020;-42
2023/02/03 13:17:06;;;;;;;;;;;7.10;99.90;;;;;;5073593;28;20021;-41
2023/02/03 13:19:48;;;;;;;3.10;1.00;;;7.10;99.90;;;;;;5073339;28;19915;-42
2023/02/03 13:22:16;;;;;;;1.75;0.90;;;7.10;99.90;;;;;;5071840;28;20024;-34